sensor_id;sensor_type;location;lat;lon;timestamp;pressure;altitude;pressure_sealevel;temperature;humidity
24013;BME280;12220;50.194;18.948;2022-10-16T00:00:50;102073.21;;;14.99;70.17
24013;BME280;12220;50.194;18.948;2022-10-16T00:02:56;102076.98;;;14.98;70.18
24013;BME280;12220;50.194;18.948;2022-10-16T00:05:00;102083.48;;;14.97;70.19
24013;BME280;12220;50.194;18.948;2022-10-16T00:07:02;102080.82;;;14.96;70.19
24013;BME280;12220;50.194;18.948;2022-10-16T00:09:04;102084.56;;;14.95;70.19
24013;BME280;12220;50.194;18.948;2022-10-16T00:11:20;102080.12;;;14.92;70.18
24013;BME280;12220;50.194;18.948;2022-10-16T00:13:33;102082.22;;;14.89;70.26
24013;BME280;12220;50.194;18.948;2022-10-16T00:15:36;102089.80;;;14.85;70.29
24013;BME280;12220;50.194;18.948;2022-10-16T00:17:39;102088.93;;;14.85;70.38
24013;BME280;12220;50.194;18.948;2022-10-16T00:19:40;102088.16;;;14.83;70.46
24013;BME280;12220;50.194;18.948;2022-10-16T00:21:47;101877.59;;;13.46;70.41
24013;BME280;12220;50.194;18.948;2022-10-16T00:23:53;102088.27;;;14.81;70.57
24013;BME280;12220;50.194;18.948;2022-10-16T00:25:57;102081.95;;;14.79;70.61
24013;BME280;12220;50.194;18.948;2022-10-16T00:28:00;102083.83;;;14.78;70.59
24013;BME280;12220;50.194;18.948;2022-10-16T00:30:02;102087.56;;;14.77;70.57
24013;BME280;12220;50.194;18.948;2022-10-16T00:32:04;102089.66;;;14.74;70.61
24013;BME280;12220;50.194;18.948;2022-10-16T00:34:05;102089.83;;;14.71;70.67
24013;BME280;12220;50.194;18.948;2022-10-16T00:36:09;102095.45;;;14.69;70.70
24013;BME280;12220;50.194;18.948;2022-10-16T00:38:17;102094.68;;;14.67;70.75
24013;BME280;12220;50.194;18.948;2022-10-16T00:40:18;102095.66;;;14.66;70.80
24013;BME280;12220;50.194;18.948;2022-10-16T00:42:19;102094.88;;;14.64;70.81
24013;BME280;12220;50.194;18.948;2022-10-16T00:46:38;102097.81;;;14.61;70.83
24013;BME280;12220;50.194;18.948;2022-10-16T00:48:41;102096.13;;;14.58;70.87
24013;BME280;12220;50.194;18.948;2022-10-16T00:50:42;102102.63;;;14.57;70.92
24013;BME280;12220;50.194;18.948;2022-10-16T00:52:47;102101.05;;;14.53;70.99
24013;BME280;12220;50.194;18.948;2022-10-16T00:54:52;102099.40;;;14.51;71.09
24013;BME280;12220;50.194;18.948;2022-10-16T00:56:56;102091.34;;;14.47;71.10
24013;BME280;12220;50.194;18.948;2022-10-16T00:58:58;102098.70;;;14.47;71.25
24013;BME280;12220;50.194;18.948;2022-10-16T01:01:00;102089.66;;;14.45;71.33
24013;BME280;12220;50.194;18.948;2022-10-16T01:03:21;102097.02;;;14.44;71.34
24013;BME280;12220;50.194;18.948;2022-10-16T01:05:09;102088.74;;;14.44;71.41
24013;BME280;12220;50.194;18.948;2022-10-16T01:07:23;102091.51;;;14.44;71.44
24013;BME280;12220;50.194;18.948;2022-10-16T01:09:37;102090.64;;;14.44;71.47
24013;BME280;12220;50.194;18.948;2022-10-16T01:11:48;102103.55;;;14.43;71.50
24013;BME280;12220;50.194;18.948;2022-10-16T01:13:55;102103.55;;;14.43;71.57
24013;BME280;12220;50.194;18.948;2022-10-16T01:16:09;102109.92;;;14.44;71.56
24013;BME280;12220;50.194;18.948;2022-10-16T01:18:30;102108.05;;;14.44;71.56
24013;BME280;12220;50.194;18.948;2022-10-16T01:20:54;102101.55;;;14.45;71.61
24013;BME280;12220;50.194;18.948;2022-10-16T01:23:21;102095.08;;;14.46;71.59
24013;BME280;12220;50.194;18.948;2022-10-16T01:27:48;102102.73;;;14.41;71.53
24013;BME280;12220;50.194;18.948;2022-10-16T01:29:54;102101.19;;;14.37;71.58
24013;BME280;12220;50.194;18.948;2022-10-16T01:32:01;102098.70;;;14.33;71.69
24013;BME280;12220;50.194;18.948;2022-10-16T01:34:10;102094.30;;;14.30;71.76
24013;BME280;12220;50.194;18.948;2022-10-16T01:36:21;102095.27;;;14.29;71.88
24013;BME280;12220;50.194;18.948;2022-10-16T01:40:49;102101.09;;;14.24;72.02
24013;BME280;12220;50.194;18.948;2022-10-16T01:42:56;102083.66;;;14.24;72.04
24013;BME280;12220;50.194;18.948;2022-10-16T01:45:01;102098.44;;;14.23;72.08
24013;BME280;12220;50.194;18.948;2022-10-16T01:47:05;101913.70;;;12.80;71.96
24013;BME280;12220;50.194;18.948;2022-10-16T01:49:10;102102.17;;;14.22;72.07
24013;BME280;12220;50.194;18.948;2022-10-16T01:51:15;102105.99;;;14.19;72.07
24013;BME280;12220;50.194;18.948;2022-10-16T01:53:18;102104.20;;;14.18;72.15
24013;BME280;12220;50.194;18.948;2022-10-16T01:55:25;102107.97;;;14.17;72.24
24013;BME280;12220;50.194;18.948;2022-10-16T01:57:29;102110.73;;;14.17;72.24
24013;BME280;12220;50.194;18.948;2022-10-16T01:59:33;102105.23;;;14.17;72.25
24013;BME280;12220;50.194;18.948;2022-10-16T02:01:39;102118.99;;;14.17;72.22
24013;BME280;12220;50.194;18.948;2022-10-16T02:03:42;102117.20;;;14.16;72.14
24013;BME280;12220;50.194;18.948;2022-10-16T02:05:54;102117.30;;;14.15;72.13
24013;BME280;12220;50.194;18.948;2022-10-16T02:08:05;102117.52;;;14.11;72.13
24013;BME280;12220;50.194;18.948;2022-10-16T02:10:07;102123.31;;;14.07;72.18
24013;BME280;12220;50.194;18.948;2022-10-16T02:12:15;102129.99;;;14.03;72.22
24013;BME280;12220;50.194;18.948;2022-10-16T02:14:19;102126.52;;;13.99;72.30
24013;BME280;12220;50.194;18.948;2022-10-16T02:18:42;102141.66;;;13.92;72.42
24013;BME280;12220;50.194;18.948;2022-10-16T02:20:53;102137.26;;;13.89;72.50
24013;BME280;12220;50.194;18.948;2022-10-16T02:22:56;102137.35;;;13.88;72.59
24013;BME280;12220;50.194;18.948;2022-10-16T02:25:15;102142.95;;;13.86;72.67
24013;BME280;12220;50.194;18.948;2022-10-16T02:29:25;102143.93;;;13.85;72.63
24013;BME280;12220;50.194;18.948;2022-10-16T02:31:29;102140.27;;;13.85;72.63
24013;BME280;12220;50.194;18.948;2022-10-16T02:33:37;102130.26;;;13.84;72.61
24013;BME280;12220;50.194;18.948;2022-10-16T02:35:41;102140.27;;;13.85;72.56
24013;BME280;12220;50.194;18.948;2022-10-16T02:37:43;102136.64;;;13.84;72.50
24013;BME280;12220;50.194;18.948;2022-10-16T02:39:45;102129.34;;;13.83;72.44
24013;BME280;12220;50.194;18.948;2022-10-16T02:41:47;102126.59;;;13.83;72.38
24013;BME280;12220;50.194;18.948;2022-10-16T02:43:48;102125.72;;;13.83;72.36
24013;BME280;12220;50.194;18.948;2022-10-16T02:45:55;102125.82;;;13.81;72.29
24013;BME280;12220;50.194;18.948;2022-10-16T02:47:56;102122.28;;;13.79;72.28
24013;BME280;12220;50.194;18.948;2022-10-16T02:49:58;102127.89;;;13.77;72.21
24013;BME280;12220;50.194;18.948;2022-10-16T02:51:59;102136.30;;;13.74;72.16
24013;BME280;12220;50.194;18.948;2022-10-16T02:54:09;102132.88;;;13.71;72.07
24013;BME280;12220;50.194;18.948;2022-10-16T02:56:11;102134.91;;;13.67;72.04
24013;BME280;12220;50.194;18.948;2022-10-16T02:58:12;102129.70;;;13.63;72.05
24013;BME280;12220;50.194;18.948;2022-10-16T03:00:17;102132.63;;;13.59;72.01
24013;BME280;12220;50.194;18.948;2022-10-16T03:02:25;102136.54;;;13.55;72.00
24013;BME280;12220;50.194;18.948;2022-10-16T03:04:26;101948.08;;;12.41;71.94
24013;BME280;12220;50.194;18.948;2022-10-16T03:06:27;102144.21;;;13.50;72.11
24013;BME280;12220;50.194;18.948;2022-10-16T03:08:28;102150.69;;;13.49;72.20
24013;BME280;12220;50.194;18.948;2022-10-16T03:10:39;102143.48;;;13.47;72.25
24013;BME280;12220;50.194;18.948;2022-10-16T03:12:41;102148.23;;;13.45;72.29
24013;BME280;12220;50.194;18.948;2022-10-16T03:14:42;102160.09;;;13.45;72.32
24013;BME280;12220;50.194;18.948;2022-10-16T03:16:43;102152.84;;;13.44;72.32
24013;BME280;12220;50.194;18.948;2022-10-16T03:18:54;102151.94;;;13.43;72.31
24013;BME280;12220;50.194;18.948;2022-10-16T03:20:57;102152.03;;;13.42;72.32
24013;BME280;12220;50.194;18.948;2022-10-16T03:22:58;102151.24;;;13.40;72.33
24013;BME280;12220;50.194;18.948;2022-10-16T03:24:59;102151.24;;;13.40;72.33
24013;BME280;12220;50.194;18.948;2022-10-16T03:27:09;102155.93;;;13.38;72.30
24013;BME280;12220;50.194;18.948;2022-10-16T03:29:10;102150.68;;;13.33;72.22
24013;BME280;12220;50.194;18.948;2022-10-16T03:31:12;102150.86;;;13.30;72.19
24013;BME280;12220;50.194;18.948;2022-10-16T03:33:13;102157.60;;;13.24;72.06
24013;BME280;12220;50.194;18.948;2022-10-16T03:35:24;102157.17;;;13.16;72.04
24013;BME280;12220;50.194;18.948;2022-10-16T03:37:25;102154.78;;;13.10;72.20
24013;BME280;12220;50.194;18.948;2022-10-16T03:39:27;102156.93;;;13.05;72.31
24013;BME280;12220;50.194;18.948;2022-10-16T03:41:28;102163.49;;;13.02;72.42
24013;BME280;12220;50.194;18.948;2022-10-16T03:43:39;102162.67;;;13.00;72.46
24013;BME280;12220;50.194;18.948;2022-10-16T03:45:40;102128.52;;;12.72;72.49
24013;BME280;12220;50.194;18.948;2022-10-16T03:47:42;102174.77;;;12.98;72.57
24013;BME280;12220;50.194;18.948;2022-10-16T03:49:43;102174.84;;;12.96;72.62
24013;BME280;12220;50.194;18.948;2022-10-16T03:51:54;102167.56;;;12.95;72.65
24013;BME280;12220;50.194;18.948;2022-10-16T03:53:55;102169.44;;;12.95;72.67
24013;BME280;12220;50.194;18.948;2022-10-16T03:55:57;102174.12;;;12.93;72.63
24013;BME280;12220;50.194;18.948;2022-10-16T03:57:59;102166.83;;;12.91;72.63
24013;BME280;12220;50.194;18.948;2022-10-16T04:00:10;102173.42;;;12.89;72.62
24013;BME280;12220;50.194;18.948;2022-10-16T04:02:12;102176.35;;;12.86;72.73
24013;BME280;12220;50.194;18.948;2022-10-16T04:04:13;102177.31;;;12.85;72.84
24013;BME280;12220;50.194;18.948;2022-10-16T04:06:14;102169.25;;;12.82;72.91
24013;BME280;12220;50.194;18.948;2022-10-16T04:08:24;101894.59;;;11.18;72.89
24013;BME280;12220;50.194;18.948;2022-10-16T04:10:25;101943.41;;;11.44;72.94
24013;BME280;12220;50.194;18.948;2022-10-16T04:12:27;102171.52;;;12.73;73.17
24013;BME280;12220;50.194;18.948;2022-10-16T04:14:28;102167.09;;;12.71;73.26
24013;BME280;12220;50.194;18.948;2022-10-16T04:16:39;102168.09;;;12.70;73.35
24013;BME280;12220;50.194;18.948;2022-10-16T04:18:40;102175.52;;;12.68;73.51
24013;BME280;12220;50.194;18.948;2022-10-16T04:20:41;102177.30;;;12.69;73.65
24013;BME280;12220;50.194;18.948;2022-10-16T04:22:43;102172.67;;;12.69;73.68
24013;BME280;12220;50.194;18.948;2022-10-16T04:24:54;102174.45;;;12.70;73.72
24013;BME280;12220;50.194;18.948;2022-10-16T04:26:55;102169.84;;;12.71;73.79
24013;BME280;12220;50.194;18.948;2022-10-16T04:28:56;102162.41;;;12.73;73.88
24013;BME280;12220;50.194;18.948;2022-10-16T04:30:57;102164.16;;;12.74;73.96
24013;BME280;12220;50.194;18.948;2022-10-16T04:33:09;102165.95;;;12.75;73.98
24013;BME280;12220;50.194;18.948;2022-10-16T04:35:10;102161.27;;;12.77;73.99
24013;BME280;12220;50.194;18.948;2022-10-16T04:37:12;102168.52;;;12.78;73.97
24013;BME280;12220;50.194;18.948;2022-10-16T04:39:13;102169.43;;;12.79;73.96
24013;BME280;12220;50.194;18.948;2022-10-16T04:43:11;102168.34;;;12.81;73.87
24013;BME280;12220;50.194;18.948;2022-10-16T04:45:13;102172.00;;;12.82;73.87
24013;BME280;12220;50.194;18.948;2022-10-16T04:47:14;102168.34;;;12.81;73.83
24013;BME280;12220;50.194;18.948;2022-10-16T04:49:15;102173.92;;;12.80;73.73
24013;BME280;12220;50.194;18.948;2022-10-16T04:51:17;102185.01;;;12.78;73.72
24013;BME280;12220;50.194;18.948;2022-10-16T04:53:19;102186.01;;;12.77;73.79
24013;BME280;12220;50.194;18.948;2022-10-16T04:55:21;102183.34;;;12.76;73.77
24013;BME280;12220;50.194;18.948;2022-10-16T04:57:22;102198.15;;;12.73;73.69
24013;BME280;12220;50.194;18.948;2022-10-16T04:59:24;102202.91;;;12.69;73.62
24013;BME280;12220;50.194;18.948;2022-10-16T05:01:25;102203.17;;;12.65;73.66
24013;BME280;12220;50.194;18.948;2022-10-16T05:03:36;102199.71;;;12.61;73.74
24013;BME280;12220;50.194;18.948;2022-10-16T05:05:42;102202.61;;;12.58;73.83
24013;BME280;12220;50.194;18.948;2022-10-16T05:07:47;102192.70;;;12.55;73.94
24013;BME280;12220;50.194;18.948;2022-10-16T05:09:50;102197.38;;;12.53;73.95
24013;BME280;12220;50.194;18.948;2022-10-16T05:11:54;102195.71;;;12.51;73.91
24013;BME280;12220;50.194;18.948;2022-10-16T05:13:56;102199.51;;;12.48;73.94
24013;BME280;12220;50.194;18.948;2022-10-16T05:15:57;102206.92;;;12.46;74.01
24013;BME280;12220;50.194;18.948;2022-10-16T05:17:58;102213.49;;;12.44;74.04
24013;BME280;12220;50.194;18.948;2022-10-16T05:20:07;102221.66;;;12.45;74.11
24013;BME280;12220;50.194;18.948;2022-10-16T05:22:08;102224.49;;;12.44;74.03
24013;BME280;12220;50.194;18.948;2022-10-16T05:24:09;102223.59;;;12.43;74.09
24013;BME280;12220;50.194;18.948;2022-10-16T05:26:11;102226.33;;;12.43;74.09
24013;BME280;12220;50.194;18.948;2022-10-16T05:28:21;102219.95;;;12.43;74.10
24013;BME280;12220;50.194;18.948;2022-10-16T05:30:22;102223.59;;;12.43;74.11
24013;BME280;12220;50.194;18.948;2022-10-16T05:32:23;102220.84;;;12.43;74.10
24013;BME280;12220;50.194;18.948;2022-10-16T05:34:24;102218.08;;;12.43;74.14
24013;BME280;12220;50.194;18.948;2022-10-16T05:36:36;102219.88;;;12.44;74.19
24013;BME280;12220;50.194;18.948;2022-10-16T05:38:37;102223.59;;;12.43;74.26
24013;BME280;12220;50.194;18.948;2022-10-16T05:40:39;102230.69;;;12.47;74.30
24013;BME280;12220;50.194;18.948;2022-10-16T05:42:41;102238.94;;;12.47;74.33
24013;BME280;12220;50.194;18.948;2022-10-16T05:44:51;102241.68;;;12.47;74.26
24013;BME280;12220;50.194;18.948;2022-10-16T05:46:52;102238.94;;;12.47;74.31
24013;BME280;12220;50.194;18.948;2022-10-16T05:48:53;102238.94;;;12.47;74.35
24013;BME280;12220;50.194;18.948;2022-10-16T05:51:03;102242.64;;;12.46;74.36
24013;BME280;12220;50.194;18.948;2022-10-16T05:53:06;102249.92;;;12.47;74.38
24013;BME280;12220;50.194;18.948;2022-10-16T05:55:07;102245.40;;;12.46;74.47
24013;BME280;12220;50.194;18.948;2022-10-16T05:57:09;102244.43;;;12.47;74.56
24013;BME280;12220;50.194;18.948;2022-10-16T05:59:10;102252.67;;;12.47;74.58
24013;BME280;12220;50.194;18.948;2022-10-16T06:01:21;102248.88;;;12.50;74.61
24013;BME280;12220;50.194;18.948;2022-10-16T06:03:25;102256.16;;;12.51;74.64
24013;BME280;12220;50.194;18.948;2022-10-16T06:05:26;102249.66;;;12.52;74.66
24013;BME280;12220;50.194;18.948;2022-10-16T06:07:27;102261.40;;;12.55;74.71
24013;BME280;12220;50.194;18.948;2022-10-16T06:09:36;102263.07;;;12.58;74.68
24013;BME280;12220;50.194;18.948;2022-10-16T06:11:37;102266.73;;;12.59;74.74
24013;BME280;12220;50.194;18.948;2022-10-16T06:13:38;102275.77;;;12.61;74.74
24013;BME280;12220;50.194;18.948;2022-10-16T06:15:43;102275.59;;;12.64;74.72
24013;BME280;12220;50.194;18.948;2022-10-16T06:17:50;102230.21;;;12.39;74.69
24013;BME280;12220;50.194;18.948;2022-10-16T06:19:52;102283.52;;;12.70;74.75
24013;BME280;12220;50.194;18.948;2022-10-16T06:21:53;102279.78;;;12.71;74.78
24013;BME280;12220;50.194;18.948;2022-10-16T06:23:55;102287.85;;;12.74;74.79
24013;BME280;12220;50.194;18.948;2022-10-16T06:26:07;102281.30;;;12.77;74.80
24013;BME280;12220;50.194;18.948;2022-10-16T06:28:09;102289.48;;;12.78;74.83
24013;BME280;12220;50.194;18.948;2022-10-16T06:30:10;102299.41;;;12.81;74.83
24013;BME280;12220;50.194;18.948;2022-10-16T06:32:12;102299.33;;;12.82;74.88
24013;BME280;12220;50.194;18.948;2022-10-16T06:34:20;102299.25;;;12.84;74.89
24013;BME280;12220;50.194;18.948;2022-10-16T06:36:22;102318.48;;;12.84;75.01
24013;BME280;12220;50.194;18.948;2022-10-16T06:38:24;102310.07;;;12.87;75.14
24013;BME280;12220;50.194;18.948;2022-10-16T06:40:25;102304.40;;;12.90;75.20
24013;BME280;12220;50.194;18.948;2022-10-16T06:42:35;102299.63;;;12.94;75.29
24013;BME280;12220;50.194;18.948;2022-10-16T06:44:36;102304.00;;;12.98;75.44
24013;BME280;12220;50.194;18.948;2022-10-16T06:46:38;102309.23;;;13.02;75.60
24013;BME280;12220;50.194;18.948;2022-10-16T06:48:39;102302.51;;;13.08;75.86
24013;BME280;12220;50.194;18.948;2022-10-16T06:51:00;102302.16;;;13.14;75.95
24013;BME280;12220;50.194;18.948;2022-10-16T06:53:12;102306.34;;;13.21;76.10
24013;BME280;12220;50.194;18.948;2022-10-16T06:55:13;102304.23;;;13.27;76.27
24013;BME280;12220;50.194;18.948;2022-10-16T06:57:15;102302.00;;;13.33;76.42
24013;BME280;12220;50.194;18.948;2022-10-16T06:59:17;102301.59;;;13.41;76.49
24013;BME280;12220;50.194;18.948;2022-10-16T07:01:19;102299.38;;;13.48;76.50
24013;BME280;12220;50.194;18.948;2022-10-16T07:03:21;102306.22;;;13.56;76.54
24013;BME280;12220;50.194;18.948;2022-10-16T07:05:22;102316.69;;;13.66;76.53
24013;BME280;12220;50.194;18.948;2022-10-16T07:07:25;102155.51;;;12.82;76.44
24013;BME280;12220;50.194;18.948;2022-10-16T07:09:27;102312.17;;;13.81;76.50
24013;BME280;12220;50.194;18.948;2022-10-16T07:11:28;102319.00;;;13.89;76.42
24013;BME280;12220;50.194;18.948;2022-10-16T07:13:33;102326.71;;;13.99;76.44
24013;BME280;12220;50.194;18.948;2022-10-16T07:15:41;102323.30;;;14.09;76.39
24013;BME280;12220;50.194;18.948;2022-10-16T07:17:42;102318.23;;;14.18;76.33
24013;BME280;12220;50.194;18.948;2022-10-16T07:19:44;102324.86;;;14.29;76.31
24013;BME280;12220;50.194;18.948;2022-10-16T07:21:45;102323.31;;;14.40;76.21
24013;BME280;12220;50.194;18.948;2022-10-16T07:23:59;102326.11;;;14.54;76.09
24013;BME280;12220;50.194;18.948;2022-10-16T07:26:02;102329.13;;;14.66;75.96
24013;BME280;12220;50.194;18.948;2022-10-16T07:28:04;102324.62;;;14.79;75.78
24013;BME280;12220;50.194;18.948;2022-10-16T07:30:06;102318.15;;;14.94;75.53
24013;BME280;12220;50.194;18.948;2022-10-16T07:32:12;102324.54;;;15.09;75.25
24013;BME280;12220;50.194;18.948;2022-10-16T07:34:16;102320.97;;;15.22;74.97
24013;BME280;12220;50.194;18.948;2022-10-16T07:36:19;102323.73;;;15.36;74.69
24013;BME280;12220;50.194;18.948;2022-10-16T07:38:23;102324.84;;;15.48;74.37
24013;BME280;12220;50.194;18.948;2022-10-16T07:40:27;102324.88;;;15.61;74.09
24013;BME280;12220;50.194;18.948;2022-10-16T07:42:28;102321.52;;;15.70;73.59
24013;BME280;12220;50.194;18.948;2022-10-16T07:44:29;102322.61;;;15.82;73.37
24013;BME280;12220;50.194;18.948;2022-10-16T07:46:31;102338.44;;;15.93;72.93
24013;BME280;12220;50.194;18.948;2022-10-16T07:48:42;102367.12;;;16.04;72.76
24013;BME280;12220;50.194;18.948;2022-10-16T07:50:47;102334.34;;;16.13;72.58
24013;BME280;12220;50.194;18.948;2022-10-16T07:52:49;102337.46;;;16.21;72.00
24013;BME280;12220;50.194;18.948;2022-10-16T07:54:50;102337.80;;;16.29;71.82
24013;BME280;12220;50.194;18.948;2022-10-16T07:56:57;102342.93;;;16.35;71.63
24013;BME280;12220;50.194;18.948;2022-10-16T07:58:58;102342.60;;;16.40;71.55
24013;BME280;12220;50.194;18.948;2022-10-16T08:01:04;102335.77;;;16.46;71.50
24013;BME280;12220;50.194;18.948;2022-10-16T08:03:06;102344.60;;;16.51;71.27
24013;BME280;12220;50.194;18.948;2022-10-16T08:05:12;102346.05;;;16.56;71.15
24013;BME280;12220;50.194;18.948;2022-10-16T08:07:13;102350.38;;;16.61;70.67
24013;BME280;12220;50.194;18.948;2022-10-16T08:09:14;102352.83;;;16.65;70.17
24013;BME280;12220;50.194;18.948;2022-10-16T08:11:16;102348.85;;;16.69;69.96
24013;BME280;12220;50.194;18.948;2022-10-16T08:13:27;102348.63;;;16.72;69.75
24013;BME280;12220;50.194;18.948;2022-10-16T08:15:28;102344.66;;;16.77;69.58
24013;BME280;12220;50.194;18.948;2022-10-16T08:17:29;102346.22;;;16.81;69.46
24013;BME280;12220;50.194;18.948;2022-10-16T08:19:30;102345.88;;;16.85;69.48
24013;BME280;12220;50.194;18.948;2022-10-16T08:21:41;102340.05;;;16.90;69.52
24013;BME280;12220;50.194;18.948;2022-10-16T08:23:43;102333.41;;;16.93;69.57
24013;BME280;12220;50.194;18.948;2022-10-16T08:25:45;102346.91;;;16.97;69.54
24013;BME280;12220;50.194;18.948;2022-10-16T08:27:46;102338.27;;;17.02;69.50
24013;BME280;12220;50.194;18.948;2022-10-16T08:29:56;102342.60;;;17.06;69.32
24013;BME280;12220;50.194;18.948;2022-10-16T08:31:58;102352.34;;;17.12;69.19
24013;BME280;12220;50.194;18.948;2022-10-16T08:33:59;102339.04;;;17.17;68.77
24013;BME280;12220;50.194;18.948;2022-10-16T08:36:02;102346.92;;;17.23;68.52
24013;BME280;12220;50.194;18.948;2022-10-16T08:38:11;102348.36;;;17.29;68.05
24013;BME280;12220;50.194;18.948;2022-10-16T08:40:20;102344.35;;;17.33;67.95
24013;BME280;12220;50.194;18.948;2022-10-16T08:49:03;102352.08;;;17.53;67.36
24013;BME280;12220;50.194;18.948;2022-10-16T08:51:18;102364.57;;;17.59;67.15
24013;BME280;12220;50.194;18.948;2022-10-16T08:55:53;102367.54;;;17.69;67.25
24013;BME280;12220;50.194;18.948;2022-10-16T08:57:54;102370.09;;;17.72;66.44
24013;BME280;12220;50.194;18.948;2022-10-16T09:00:00;102361.42;;;17.76;65.99
24013;BME280;12220;50.194;18.948;2022-10-16T09:02:19;102374.05;;;17.81;66.22
24013;BME280;12220;50.194;18.948;2022-10-16T09:06:42;102363.41;;;17.87;65.38
24013;BME280;12220;50.194;18.948;2022-10-16T09:16:10;102357.85;;;18.00;65.38
24013;BME280;12220;50.194;18.948;2022-10-16T09:21:03;102372.66;;;18.12;65.78
24013;BME280;12220;50.194;18.948;2022-10-16T09:25:21;102375.38;;;18.25;65.70
24013;BME280;12220;50.194;18.948;2022-10-16T09:27:25;102379.45;;;18.32;65.42
24013;BME280;12220;50.194;18.948;2022-10-16T09:29:31;102382.49;;;18.40;65.12
24013;BME280;12220;50.194;18.948;2022-10-16T09:31:36;102388.34;;;18.49;64.92
24013;BME280;12220;50.194;18.948;2022-10-16T09:33:39;102382.06;;;18.58;64.92
24013;BME280;12220;50.194;18.948;2022-10-16T09:35:49;102377.80;;;18.65;64.01
24013;BME280;12220;50.194;18.948;2022-10-16T09:37:51;102381.49;;;18.77;63.82
24013;BME280;12220;50.194;18.948;2022-10-16T09:39:55;102379.79;;;18.87;63.62
24013;BME280;12220;50.194;18.948;2022-10-16T09:41:56;102387.28;;;18.98;63.46
24013;BME280;12220;50.194;18.948;2022-10-16T09:44:00;102382.88;;;19.07;63.44
24013;BME280;12220;50.194;18.948;2022-10-16T09:46:07;102391.37;;;19.16;63.44
24013;BME280;12220;50.194;18.948;2022-10-16T09:48:13;102383.27;;;19.25;63.25
24013;BME280;12220;50.194;18.948;2022-10-16T09:50:25;102387.20;;;19.33;63.00
24013;BME280;12220;50.194;18.948;2022-10-16T09:52:32;102388.46;;;19.41;61.74
24013;BME280;12220;50.194;18.948;2022-10-16T09:54:34;102390.86;;;19.45;61.94
24013;BME280;12220;50.194;18.948;2022-10-16T09:56:36;102395.03;;;19.51;62.02
24013;BME280;12220;50.194;18.948;2022-10-16T09:58:49;102391.91;;;19.56;61.97
24013;BME280;12220;50.194;18.948;2022-10-16T10:00:52;102387.70;;;19.61;62.01
24013;BME280;12220;50.194;18.948;2022-10-16T10:02:54;102388.35;;;19.65;62.06
24013;BME280;12220;50.194;18.948;2022-10-16T10:04:56;102387.09;;;19.69;61.81
24013;BME280;12220;50.194;18.948;2022-10-16T10:06:58;102395.92;;;19.74;61.61
24013;BME280;12220;50.194;18.948;2022-10-16T10:13:44;102394.17;;;19.84;60.20
24013;BME280;12220;50.194;18.948;2022-10-16T10:15:45;102394.17;;;19.84;60.59
24013;BME280;12220;50.194;18.948;2022-10-16T10:17:52;102386.48;;;19.88;60.68
24013;BME280;12220;50.194;18.948;2022-10-16T10:19:55;102385.34;;;19.91;60.80
24013;BME280;12220;50.194;18.948;2022-10-16T10:21:59;102395.16;;;19.95;60.80
24013;BME280;12220;50.194;18.948;2022-10-16T10:24:00;102395.03;;;19.96;60.61
24013;BME280;12220;50.194;18.948;2022-10-16T10:26:11;102401.37;;;19.98;60.55
24013;BME280;12220;50.194;18.948;2022-10-16T10:32:50;102400.18;;;20.12;60.18
24013;BME280;12220;50.194;18.948;2022-10-16T10:35:05;102391.61;;;20.15;60.16
24013;BME280;12220;50.194;18.948;2022-10-16T10:37:30;102399.55;;;20.20;59.65
24013;BME280;12220;50.194;18.948;2022-10-16T10:39:46;102399.42;;;20.22;59.33
24013;BME280;12220;50.194;18.948;2022-10-16T10:51:13;102402.95;;;20.24;58.44
24013;BME280;12220;50.194;18.948;2022-10-16T10:55:27;102396.11;;;20.28;58.94
24013;BME280;12220;50.194;18.948;2022-10-16T11:00:02;102383.71;;;20.32;59.13
24013;BME280;12220;50.194;18.948;2022-10-16T11:02:26;102382.57;;;20.34;59.01
24013;BME280;12220;50.194;18.948;2022-10-16T11:07:04;102376.47;;;20.41;58.98
24013;BME280;12220;50.194;18.948;2022-10-16T11:09:23;102382.63;;;20.44;58.96
24013;BME280;12220;50.194;18.948;2022-10-16T11:11:28;102382.23;;;20.49;58.97
24013;BME280;12220;50.194;18.948;2022-10-16T11:13:34;102380.09;;;20.52;58.87
24013;BME280;12220;50.194;18.948;2022-10-16T11:15:40;102385.38;;;20.55;58.76
24013;BME280;12220;50.194;18.948;2022-10-16T11:17:52;102378.54;;;20.60;58.95
24013;BME280;12220;50.194;18.948;2022-10-16T11:20:14;102384.70;;;20.63;58.81
24013;BME280;12220;50.194;18.948;2022-10-16T11:22:25;102379.90;;;20.65;58.55
24013;BME280;12220;50.194;18.948;2022-10-16T11:24:41;102391.91;;;20.66;58.52
24013;BME280;12220;50.194;18.948;2022-10-16T11:26:45;102389.93;;;20.68;58.26
24013;BME280;12220;50.194;18.948;2022-10-16T11:28:53;102398.28;;;20.68;57.88
24013;BME280;12220;50.194;18.948;2022-10-16T11:31:08;102391.80;;;20.67;57.86
24013;BME280;12220;50.194;18.948;2022-10-16T11:33:25;102386.23;;;20.67;57.93
24013;BME280;12220;50.194;18.948;2022-10-16T11:35:43;102374.23;;;20.67;57.88
24013;BME280;12220;50.194;18.948;2022-10-16T11:37:46;102385.23;;;20.68;58.21
24013;BME280;12220;50.194;18.948;2022-10-16T11:39:59;102384.09;;;20.71;57.91
24013;BME280;12220;50.194;18.948;2022-10-16T11:42:16;102386.10;;;20.69;57.79
24013;BME280;12220;50.194;18.948;2022-10-16T11:46:35;102386.34;;;20.66;57.66
24013;BME280;12220;50.194;18.948;2022-10-16T11:48:51;102393.95;;;20.64;57.77
24013;BME280;12220;50.194;18.948;2022-10-16T11:51:10;102389.40;;;20.63;57.84